Francisco Camaco — CULX2 — position and weather

sailwx.info

Track history (hours):
 
Tides and Currents Weather Stations Pressure Air Temp Water Temp Dewpoint Dewpoint Depression Visibility Wind Speed Wind Dir Waves Ship Positions

Francisco Camaco

Last reported at 2018-Apr-24 14:59 UTC. Time now 2018-Apr-25 07:01 UTC.
Position N 38°26' W 009°07'.

Length 23 m.

Type: Fishing. MMSI: 263431350.

Date/timePositionNaut miles runAvg speedWind from/ knotsBaromVisibWave heightAir tempDewpointWater temp
2018-Apr-24 14:59N 38°26' W 009°07'0 0.3
2018-Apr-24 14:30N 38°26' W 009°07'0 0.0
2018-Apr-24 13:59N 38°26' W 009°07'0 0.0
2018-Apr-24 12:10N 38°26' W 009°07'0 0.0
2018-Apr-24 12:00N 38°26' W 009°07'0 0.2
2018-Apr-24 11:30N 38°26' W 009°07'0 0.3
2018-Apr-24 11:00N 38°26' W 009°07'5 9.7
2018-Apr-24 10:30N 38°23' W 009°02'5 9.7
2018-Apr-24 10:00N 38°20' W 008°58'5 9.6
2018-Apr-24 09:28N 38°16' W 008°53'4 9.5
2018-Apr-24 09:00N 38°13' W 008°49'0 0.1
2018-Apr-24 08:30N 38°13' W 008°49'0 0.2
2018-Apr-24 08:00N 38°13' W 008°49'0 0.1
2018-Apr-24 07:30N 38°13' W 008°49'0 0.9
2018-Apr-24 07:00N 38°12' W 008°49'1 3.0
2018-Apr-24 06:31N 38°11' W 008°48'1 2.8
2018-Apr-24 06:00N 38°12' W 008°49'2 3.3
2018-Apr-24 05:30N 38°10' W 008°49'2 3.8
2018-Apr-24 05:00N 38°12' W 008°49'0 1.0
2018-Apr-24 04:30N 38°12' W 008°49'0 0.2
2018-Apr-24 04:00N 38°13' W 008°49'1 2.1
2018-Apr-24 03:30N 38°12' W 008°49'0 0.6
2018-Apr-24 03:00N 38°12' W 008°50'3 6.6
2018-Apr-24 02:30N 38°15' W 008°50'1 0.7
2018-Apr-24 01:47N 38°15' W 008°50'0 0.3
2018-Apr-24 01:25N 38°16' W 008°50'1 3.5
2018-Apr-24 01:00N 38°14' W 008°49'2 3.1
2018-Apr-24 00:28N 38°13' W 008°49'0 1.0
2018-Apr-24 00:00N 38°12' W 008°49'0 0.2
2018-Apr-23 23:30N 38°13' W 008°49'0 0.6
2018-Apr-23 23:00N 38°12' W 008°49'0 0.2
2018-Apr-23 22:30N 38°13' W 008°49'0 0.1
2018-Apr-23 22:00N 38°12' W 008°49'0 0.2
2018-Apr-23 21:30N 38°12' W 008°49'0 0.3
2018-Apr-23 21:00N 38°12' W 008°49'0 0.5
2018-Apr-23 20:30N 38°12' W 008°49'3 5.6
2018-Apr-23 20:00N 38°15' W 008°50'4 8.9
2018-Apr-23 19:30N 38°18' W 008°54'5 9.1
2018-Apr-23 19:00N 38°21' W 008°58'5 9.1
2018-Apr-23 18:30N 38°24' W 009°03'4 8.2
2018-Apr-23 18:00N 38°26' W 009°07'0 0.0
2018-Apr-23 08:01N 38°26' W 009°07'0 0.0
2018-Apr-23 08:00N 38°26' W 009°07'3 5.9
2018-Apr-23 07:30N 38°25' W 009°10'3 6.8
2018-Apr-23 07:00N 38°26' W 009°14'4 7.5
2018-Apr-23 06:30N 38°30' W 009°14'1 1.6
2018-Apr-23 06:00N 38°29' W 009°14'3 6.6
2018-Apr-23 05:30N 38°32' W 009°14'1 2.6
2018-Apr-23 05:00N 38°33' W 009°15'3 6.1
2018-Apr-23 04:30N 38°34' W 009°19'0 0.5
2018-Apr-23 03:58N 38°34' W 009°19'0 0.6
2018-Apr-23 03:30N 38°34' W 009°19'1 2.5
2018-Apr-23 02:58N 38°34' W 009°17'4 9.2
2018-Apr-23 02:30N 38°30' W 009°14'4 7.6
2018-Apr-23 02:00N 38°27' W 009°14'5 8.8
2018-Apr-23 01:27N 38°23' W 009°10'5 9.7
2018-Apr-23 00:58N 38°20' W 009°05'5 9.7
2018-Apr-23 00:25N 38°18' W 008°59'4 9.5
2018-Apr-23 00:00N 38°17' W 008°54'4 7.3
2018-Apr-22 23:30N 38°15' W 008°50'3 6.0
2018-Apr-22 23:00N 38°12' W 008°49'0 0.6
2018-Apr-22 22:30N 38°12' W 008°49'0 0.8
2018-Apr-22 22:00N 38°12' W 008°49'1 2.6
2018-Apr-22 21:30N 38°14' W 008°50'5 9.3
2018-Apr-22 21:00N 38°17' W 008°54'5 9.6
2018-Apr-22 20:30N 38°20' W 008°58'5 9.6
2018-Apr-22 20:00N 38°23' W 009°03'4 0.1
2018-Apr-21 11:41N 38°26' W 009°07'0 0.0
2018-Apr-21 11:30N 38°26' W 009°07'0 0.0
2018-Apr-21 10:51N 38°26' W 009°07'0 0.0
2018-Apr-21 10:30N 38°26' W 009°07'0 0.0
2018-Apr-21 09:59N 38°26' W 009°07'0 0.0
2018-Apr-21 09:29N 38°26' W 009°07'0 0.0
2018-Apr-20 09:29N 38°26' W 009°07'0 0.4
2018-Apr-20 09:00N 38°26' W 009°07'4 8.2
2018-Apr-20 08:30N 38°25' W 009°02'6 9.0
2018-Apr-20 07:52N 38°24' W 008°54'7 8.4
2018-Apr-20 07:04N 38°19' W 008°49'1 4.5
2018-Apr-20 06:53N 38°18' W 008°49'4 9.3
2018-Apr-20 06:30N 38°15' W 008°49'3 5.7
2018-Apr-20 05:59N 38°12' W 008°49'4 7.6
2018-Apr-20 05:30N 38°15' W 008°48'2 4.0
2018-Apr-20 05:00N 38°13' W 008°48'1 2.5
2018-Apr-20 04:30N 38°14' W 008°50'0 0.8
2018-Apr-20 04:00N 38°14' W 008°49'1 2.2
2018-Apr-20 03:30N 38°13' W 008°50'0 0.3
2018-Apr-20 02:52N 38°13' W 008°50'0 0.3
2018-Apr-20 02:31N 38°13' W 008°50'1 2.8
2018-Apr-20 02:00N 38°12' W 008°49'1 1.4
2018-Apr-20 01:30N 38°13' W 008°49'0 0.8
2018-Apr-20 01:00N 38°13' W 008°50'0 0.3
2018-Apr-20 00:30N 38°12' W 008°50'1 1.3
2018-Apr-20 00:00N 38°12' W 008°50'1 1.8
2018-Apr-19 23:31N 38°13' W 008°49'1 1.3
2018-Apr-19 23:00N 38°13' W 008°50'1 1.3
2018-Apr-19 22:30N 38°13' W 008°49'0 0.2
2018-Apr-19 22:01N 38°13' W 008°49'0 0.0
2018-Apr-19 21:30N 38°13' W 008°49'0 0.9
2018-Apr-19 21:00N 38°12' W 008°49'0 0.5
2018-Apr-19 20:30N 38°12' W 008°50'3 5.1
2018-Apr-19 20:00N 38°15' W 008°49'0 0.9
2018-Apr-19 19:30N 38°15' W 008°49'0 0.5
2018-Apr-19 19:00N 38°15' W 008°50'4 8.1
2018-Apr-19 18:30N 38°18' W 008°53'5 9.3
2018-Apr-19 18:00N 38°21' W 008°58'5 9.2
2018-Apr-19 17:30N 38°24' W 009°02'4 8.1
2018-Apr-19 17:00N 38°26' W 009°07'0 0.0
2018-Apr-19 09:15N 38°26' W 009°07'0 0.6
2018-Apr-19 09:00N 38°26' W 009°07'3 6.9
2018-Apr-19 08:30N 38°25' W 009°03'5 9.3
2018-Apr-19 08:00N 38°23' W 008°57'6 8.9
2018-Apr-19 07:17N 38°20' W 008°50'2 5.3
2018-Apr-19 07:00N 38°19' W 008°49'4 7.6
2018-Apr-19 06:30N 38°15' W 008°49'1 1.3
2018-Apr-19 06:00N 38°14' W 008°49'2 4.2
2018-Apr-19 05:30N 38°16' W 008°49'3 5.8
2018-Apr-19 05:00N 38°14' W 008°48'1 1.8
2018-Apr-19 04:30N 38°13' W 008°49'1 1.1
2018-Apr-19 04:00N 38°13' W 008°49'0 1.0
2018-Apr-19 03:30N 38°13' W 008°49'1 1.9
2018-Apr-19 03:00N 38°14' W 008°50'2 3.5
2018-Apr-19 02:30N 38°12' W 008°49'1 2.7
2018-Apr-19 02:00N 38°14' W 008°49'1 2.7
2018-Apr-19 01:30N 38°12' W 008°50'1 1.1
2018-Apr-19 01:00N 38°12' W 008°50'1 2.2
2018-Apr-19 00:30N 38°13' W 008°49'0 0.5
2018-Apr-19 00:00N 38°13' W 008°49'0 0.2
2018-Apr-18 23:30N 38°13' W 008°50'1 1.6
2018-Apr-18 23:00N 38°12' W 008°49'2 4.2
2018-Apr-18 22:29N 38°14' W 008°50'0 0.0
2018-Apr-18 22:00N 38°14' W 008°50'1 2.6
2018-Apr-18 21:30N 38°16' W 008°49'0 0.4
2018-Apr-18 21:00N 38°16' W 008°49'0 0.2
2018-Apr-18 20:30N 38°16' W 008°49'0 0.1
2018-Apr-18 20:00N 38°16' W 008°49'0 0.5
2018-Apr-18 19:30N 38°15' W 008°50'0 0.2
2018-Apr-18 19:00N 38°15' W 008°49'4 7.2
2018-Apr-18 18:30N 38°18' W 008°53'5 9.5
2018-Apr-18 18:00N 38°21' W 008°57'5 9.7
2018-Apr-18 17:30N 38°24' W 009°02'4 8.6
2018-Apr-18 17:00N 38°26' W 009°07'0 0.0
2018-Apr-18 09:15N 38°26' W 009°07'1 3.0
2018-Apr-18 09:00N 38°26' W 009°06'4 8.7
2018-Apr-18 08:30N 38°24' W 009°01'4 8.6
2018-Apr-18 07:59N 38°22' W 008°56'6 8.7
2018-Apr-18 07:19N 38°19' W 008°50'3 8.4
2018-Apr-18 07:00N 38°17' W 008°48'1 2.7
2018-Apr-18 06:30N 38°15' W 008°48'0 0.9
2018-Apr-18 06:00N 38°16' W 008°48'1 2.1
2018-Apr-18 05:30N 38°15' W 008°47'1 2.1
2018-Apr-18 05:00N 38°14' W 008°48'1 1.9
2018-Apr-18 04:30N 38°14' W 008°49'1 1.4
2018-Apr-18 04:00N 38°14' W 008°50'0 0.4
2018-Apr-18 03:30N 38°14' W 008°50'0 0.4
2018-Apr-18 03:00N 38°13' W 008°50'0 0.5
2018-Apr-18 02:30N 38°13' W 008°50'0 0.4
2018-Apr-18 02:00N 38°13' W 008°51'1 2.7
2018-Apr-18 01:30N 38°12' W 008°49'4 7.6
2018-Apr-18 01:00N 38°16' W 008°50'0 0.0
2018-Apr-18 00:30N 38°16' W 008°50'0 0.1
2018-Apr-18 00:00N 38°16' W 008°50'0 0.2
2018-Apr-17 23:30N 38°16' W 008°50'0 0.3
2018-Apr-17 23:00N 38°16' W 008°50'0 0.2
2018-Apr-17 22:30N 38°16' W 008°50'0 0.3
2018-Apr-17 22:00N 38°15' W 008°50'1 2.2
2018-Apr-17 21:30N 38°14' W 008°49'4 7.5
2018-Apr-17 21:00N 38°11' W 008°49'2 3.9
2018-Apr-17 20:30N 38°12' W 008°50'3 5.0
2018-Apr-17 20:00N 38°15' W 008°50'1 1.3
2018-Apr-17 19:30N 38°16' W 008°49'2 3.3
2018-Apr-17 19:00N 38°14' W 008°50'1 1.5
2018-Apr-17 18:30N 38°15' W 008°50'4 8.9
2018-Apr-17 18:00N 38°18' W 008°53'5 9.7
2018-Apr-17 17:30N 38°21' W 008°58'5 9.7
2018-Apr-17 17:00N 38°24' W 009°03'4 7.4
2018-Apr-17 16:30N 38°26' W 009°07'0 0.0
2018-Apr-17 09:02N 38°26' W 009°07'0 0.0
2018-Apr-17 09:01N 38°26' W 009°07'0 0.0
2018-Apr-17 08:30N 38°26' W 009°07'2 4.4
2018-Apr-17 08:00N 38°25' W 009°04'5 8.9
2018-Apr-17 07:29N 38°23' W 008°59'4 8.8
2018-Apr-17 07:00N 38°20' W 008°55'5 9.1
2018-Apr-17 06:29N 38°17' W 008°50'2 4.5
2018-Apr-17 06:00N 38°15' W 008°50'2 4.4
2018-Apr-17 05:31N 38°14' W 008°47'2 4.2
2018-Apr-17 05:00N 38°15' W 008°50'3 6.5
2018-Apr-17 04:30N 38°12' W 008°49'3 5.7
2018-Apr-17 04:01N 38°15' W 008°50'1 2.9
2018-Apr-17 03:31N 38°16' W 008°51'1 1.9
2018-Apr-17 02:58N 38°15' W 008°50'2 5.0
2018-Apr-17 02:30N 38°13' W 008°50'0 1.0
2018-Apr-17 02:00N 38°13' W 008°49'0 0.3
2018-Apr-17 01:30N 38°13' W 008°49'0 0.3
2018-Apr-17 01:00N 38°13' W 008°49'0 0.3
2018-Apr-17 00:30N 38°13' W 008°49'0 0.2
2018-Apr-16 23:59N 38°13' W 008°49'0 0.2
2018-Apr-16 23:30N 38°13' W 008°49'0 0.3
2018-Apr-16 23:01N 38°12' W 008°49'3 5.6
2018-Apr-16 22:27N 38°16' W 008°49'3 7.1
2018-Apr-16 22:00N 38°12' W 008°49'1 1.2
2018-Apr-16 21:30N 38°12' W 008°50'4 7.0
2018-Apr-16 21:00N 38°15' W 008°50'1 1.6
2018-Apr-16 20:31N 38°15' W 008°49'1 2.7
2018-Apr-16 19:58N 38°16' W 008°50'17 0.7
2018-Apr-15 21:17N 38°26' W 009°07'1 0.4
2018-Apr-15 20:02N 38°26' W 009°07'0 0.0
2018-Apr-15 19:59N 38°26' W 009°07'  
Track history (hours):
 
Tides and Currents Weather Stations Pressure Air Temp Water Temp Dewpoint Dewpoint Depression Visibility Wind Speed Wind Dir Waves Ship Positions

Francisco Camaco

Last reported at 2018-Apr-24 14:59 UTC. Time now 2018-Apr-25 07:01 UTC.
Position N 38°26' W 009°07'.

Length 23 m.

Type: Fishing. MMSI: 263431350.

Date/timePositionNaut miles runAvg speedWind from/ knotsBaromVisibWave heightAir tempDewpointWater temp
2018-Apr-24 14:59N 38°26' W 009°07'0 0.3
2018-Apr-24 14:30N 38°26' W 009°07'0 0.0
2018-Apr-24 13:59N 38°26' W 009°07'0 0.0
2018-Apr-24 12:10N 38°26' W 009°07'0 0.0
2018-Apr-24 12:00N 38°26' W 009°07'0 0.2
2018-Apr-24 11:30N 38°26' W 009°07'0 0.3
2018-Apr-24 11:00N 38°26' W 009°07'5 9.7
2018-Apr-24 10:30N 38°23' W 009°02'5 9.7
2018-Apr-24 10:00N 38°20' W 008°58'5 9.6
2018-Apr-24 09:28N 38°16' W 008°53'4 9.5
2018-Apr-24 09:00N 38°13' W 008°49'0 0.1
2018-Apr-24 08:30N 38°13' W 008°49'0 0.2
2018-Apr-24 08:00N 38°13' W 008°49'0 0.1
2018-Apr-24 07:30N 38°13' W 008°49'0 0.9
2018-Apr-24 07:00N 38°12' W 008°49'1 3.0
2018-Apr-24 06:31N 38°11' W 008°48'1 2.8
2018-Apr-24 06:00N 38°12' W 008°49'2 3.3
2018-Apr-24 05:30N 38°10' W 008°49'2 3.8
2018-Apr-24 05:00N 38°12' W 008°49'0 1.0
2018-Apr-24 04:30N 38°12' W 008°49'0 0.2
2018-Apr-24 04:00N 38°13' W 008°49'1 2.1
2018-Apr-24 03:30N 38°12' W 008°49'0 0.6
2018-Apr-24 03:00N 38°12' W 008°50'3 6.6
2018-Apr-24 02:30N 38°15' W 008°50'1 0.7
2018-Apr-24 01:47N 38°15' W 008°50'0 0.3
2018-Apr-24 01:25N 38°16' W 008°50'1 3.5
2018-Apr-24 01:00N 38°14' W 008°49'2 3.1
2018-Apr-24 00:28N 38°13' W 008°49'0 1.0
2018-Apr-24 00:00N 38°12' W 008°49'0 0.2
2018-Apr-23 23:30N 38°13' W 008°49'0 0.6
2018-Apr-23 23:00N 38°12' W 008°49'0 0.2
2018-Apr-23 22:30N 38°13' W 008°49'0 0.1
2018-Apr-23 22:00N 38°12' W 008°49'0 0.2
2018-Apr-23 21:30N 38°12' W 008°49'0 0.3
2018-Apr-23 21:00N 38°12' W 008°49'0 0.5
2018-Apr-23 20:30N 38°12' W 008°49'3 5.6
2018-Apr-23 20:00N 38°15' W 008°50'4 8.9
2018-Apr-23 19:30N 38°18' W 008°54'5 9.1
2018-Apr-23 19:00N 38°21' W 008°58'5 9.1
2018-Apr-23 18:30N 38°24' W 009°03'4 8.2
2018-Apr-23 18:00N 38°26' W 009°07'0 0.0
2018-Apr-23 08:01N 38°26' W 009°07'0 0.0
2018-Apr-23 08:00N 38°26' W 009°07'3 5.9
2018-Apr-23 07:30N 38°25' W 009°10'3 6.8
2018-Apr-23 07:00N 38°26' W 009°14'4 7.5
2018-Apr-23 06:30N 38°30' W 009°14'1 1.6
2018-Apr-23 06:00N 38°29' W 009°14'3 6.6
2018-Apr-23 05:30N 38°32' W 009°14'1 2.6
2018-Apr-23 05:00N 38°33' W 009°15'3 6.1
2018-Apr-23 04:30N 38°34' W 009°19'0 0.5
2018-Apr-23 03:58N 38°34' W 009°19'0 0.6
2018-Apr-23 03:30N 38°34' W 009°19'1 2.5
2018-Apr-23 02:58N 38°34' W 009°17'4 9.2
2018-Apr-23 02:30N 38°30' W 009°14'4 7.6
2018-Apr-23 02:00N 38°27' W 009°14'5 8.8
2018-Apr-23 01:27N 38°23' W 009°10'5 9.7
2018-Apr-23 00:58N 38°20' W 009°05'5 9.7
2018-Apr-23 00:25N 38°18' W 008°59'4 9.5
2018-Apr-23 00:00N 38°17' W 008°54'4 7.3
2018-Apr-22 23:30N 38°15' W 008°50'3 6.0
2018-Apr-22 23:00N 38°12' W 008°49'0 0.6
2018-Apr-22 22:30N 38°12' W 008°49'0 0.8
2018-Apr-22 22:00N 38°12' W 008°49'1 2.6
2018-Apr-22 21:30N 38°14' W 008°50'5 9.3
2018-Apr-22 21:00N 38°17' W 008°54'5 9.6
2018-Apr-22 20:30N 38°20' W 008°58'5 9.6
2018-Apr-22 20:00N 38°23' W 009°03'4 0.1
2018-Apr-21 11:41N 38°26' W 009°07'0 0.0
2018-Apr-21 11:30N 38°26' W 009°07'0 0.0
2018-Apr-21 10:51N 38°26' W 009°07'0 0.0
2018-Apr-21 10:30N 38°26' W 009°07'0 0.0
2018-Apr-21 09:59N 38°26' W 009°07'0 0.0
2018-Apr-21 09:29N 38°26' W 009°07'0 0.0
2018-Apr-20 09:29N 38°26' W 009°07'0 0.4
2018-Apr-20 09:00N 38°26' W 009°07'4 8.2
2018-Apr-20 08:30N 38°25' W 009°02'6 9.0
2018-Apr-20 07:52N 38°24' W 008°54'7 8.4
2018-Apr-20 07:04N 38°19' W 008°49'1 4.5
2018-Apr-20 06:53N 38°18' W 008°49'4 9.3
2018-Apr-20 06:30N 38°15' W 008°49'3 5.7
2018-Apr-20 05:59N 38°12' W 008°49'4 7.6
2018-Apr-20 05:30N 38°15' W 008°48'2 4.0
2018-Apr-20 05:00N 38°13' W 008°48'1 2.5
2018-Apr-20 04:30N 38°14' W 008°50'0 0.8
2018-Apr-20 04:00N 38°14' W 008°49'1 2.2
2018-Apr-20 03:30N 38°13' W 008°50'0 0.3
2018-Apr-20 02:52N 38°13' W 008°50'0 0.3
2018-Apr-20 02:31N 38°13' W 008°50'1 2.8
2018-Apr-20 02:00N 38°12' W 008°49'1 1.4
2018-Apr-20 01:30N 38°13' W 008°49'0 0.8
2018-Apr-20 01:00N 38°13' W 008°50'0 0.3
2018-Apr-20 00:30N 38°12' W 008°50'1 1.3
2018-Apr-20 00:00N 38°12' W 008°50'1 1.8
2018-Apr-19 23:31N 38°13' W 008°49'1 1.3
2018-Apr-19 23:00N 38°13' W 008°50'1 1.3
2018-Apr-19 22:30N 38°13' W 008°49'0 0.2
2018-Apr-19 22:01N 38°13' W 008°49'0 0.0
2018-Apr-19 21:30N 38°13' W 008°49'0 0.9
2018-Apr-19 21:00N 38°12' W 008°49'0 0.5
2018-Apr-19 20:30N 38°12' W 008°50'3 5.1
2018-Apr-19 20:00N 38°15' W 008°49'0 0.9
2018-Apr-19 19:30N 38°15' W 008°49'0 0.5
2018-Apr-19 19:00N 38°15' W 008°50'4 8.1
2018-Apr-19 18:30N 38°18' W 008°53'5 9.3
2018-Apr-19 18:00N 38°21' W 008°58'5 9.2
2018-Apr-19 17:30N 38°24' W 009°02'4 8.1
2018-Apr-19 17:00N 38°26' W 009°07'0 0.0
2018-Apr-19 09:15N 38°26' W 009°07'0 0.6
2018-Apr-19 09:00N 38°26' W 009°07'3 6.9
2018-Apr-19 08:30N 38°25' W 009°03'5 9.3
2018-Apr-19 08:00N 38°23' W 008°57'6 8.9
2018-Apr-19 07:17N 38°20' W 008°50'2 5.3
2018-Apr-19 07:00N 38°19' W 008°49'4 7.6
2018-Apr-19 06:30N 38°15' W 008°49'1 1.3
2018-Apr-19 06:00N 38°14' W 008°49'2 4.2
2018-Apr-19 05:30N 38°16' W 008°49'3 5.8
2018-Apr-19 05:00N 38°14' W 008°48'1 1.8
2018-Apr-19 04:30N 38°13' W 008°49'1 1.1
2018-Apr-19 04:00N 38°13' W 008°49'0 1.0
2018-Apr-19 03:30N 38°13' W 008°49'1 1.9
2018-Apr-19 03:00N 38°14' W 008°50'2 3.5
2018-Apr-19 02:30N 38°12' W 008°49'1 2.7
2018-Apr-19 02:00N 38°14' W 008°49'1 2.7
2018-Apr-19 01:30N 38°12' W 008°50'1 1.1
2018-Apr-19 01:00N 38°12' W 008°50'1 2.2
2018-Apr-19 00:30N 38°13' W 008°49'0 0.5
2018-Apr-19 00:00N 38°13' W 008°49'0 0.2
2018-Apr-18 23:30N 38°13' W 008°50'1 1.6
2018-Apr-18 23:00N 38°12' W 008°49'2 4.2
2018-Apr-18 22:29N 38°14' W 008°50'0 0.0
2018-Apr-18 22:00N 38°14' W 008°50'1 2.6
2018-Apr-18 21:30N 38°16' W 008°49'0 0.4
2018-Apr-18 21:00N 38°16' W 008°49'0 0.2
2018-Apr-18 20:30N 38°16' W 008°49'0 0.1
2018-Apr-18 20:00N 38°16' W 008°49'0 0.5
2018-Apr-18 19:30N 38°15' W 008°50'0 0.2
2018-Apr-18 19:00N 38°15' W 008°49'4 7.2
2018-Apr-18 18:30N 38°18' W 008°53'5 9.5
2018-Apr-18 18:00N 38°21' W 008°57'5 9.7
2018-Apr-18 17:30N 38°24' W 009°02'4 8.6
2018-Apr-18 17:00N 38°26' W 009°07'0 0.0
2018-Apr-18 09:15N 38°26' W 009°07'1 3.0
2018-Apr-18 09:00N 38°26' W 009°06'4 8.7
2018-Apr-18 08:30N 38°24' W 009°01'4 8.6
2018-Apr-18 07:59N 38°22' W 008°56'6 8.7
2018-Apr-18 07:19N 38°19' W 008°50'3 8.4
2018-Apr-18 07:00N 38°17' W 008°48'1 2.7
2018-Apr-18 06:30N 38°15' W 008°48'0 0.9
2018-Apr-18 06:00N 38°16' W 008°48'1 2.1
2018-Apr-18 05:30N 38°15' W 008°47'1 2.1
2018-Apr-18 05:00N 38°14' W 008°48'1 1.9
2018-Apr-18 04:30N 38°14' W 008°49'1 1.4
2018-Apr-18 04:00N 38°14' W 008°50'0 0.4
2018-Apr-18 03:30N 38°14' W 008°50'0 0.4
2018-Apr-18 03:00N 38°13' W 008°50'0 0.5
2018-Apr-18 02:30N 38°13' W 008°50'0 0.4
2018-Apr-18 02:00N 38°13' W 008°51'1 2.7
2018-Apr-18 01:30N 38°12' W 008°49'4 7.6
2018-Apr-18 01:00N 38°16' W 008°50'0 0.0
2018-Apr-18 00:30N 38°16' W 008°50'0 0.1
2018-Apr-18 00:00N 38°16' W 008°50'0 0.2
2018-Apr-17 23:30N 38°16' W 008°50'0 0.3
2018-Apr-17 23:00N 38°16' W 008°50'0 0.2
2018-Apr-17 22:30N 38°16' W 008°50'0 0.3
2018-Apr-17 22:00N 38°15' W 008°50'1 2.2
2018-Apr-17 21:30N 38°14' W 008°49'4 7.5
2018-Apr-17 21:00N 38°11' W 008°49'2 3.9
2018-Apr-17 20:30N 38°12' W 008°50'3 5.0
2018-Apr-17 20:00N 38°15' W 008°50'1 1.3
2018-Apr-17 19:30N 38°16' W 008°49'2 3.3
2018-Apr-17 19:00N 38°14' W 008°50'1 1.5
2018-Apr-17 18:30N 38°15' W 008°50'4 8.9
2018-Apr-17 18:00N 38°18' W 008°53'5 9.7
2018-Apr-17 17:30N 38°21' W 008°58'5 9.7
2018-Apr-17 17:00N 38°24' W 009°03'4 7.4
2018-Apr-17 16:30N 38°26' W 009°07'0 0.0
2018-Apr-17 09:02N 38°26' W 009°07'0 0.0
2018-Apr-17 09:01N 38°26' W 009°07'0 0.0
2018-Apr-17 08:30N 38°26' W 009°07'2 4.4
2018-Apr-17 08:00N 38°25' W 009°04'5 8.9
2018-Apr-17 07:29N 38°23' W 008°59'4 8.8
2018-Apr-17 07:00N 38°20' W 008°55'5 9.1
2018-Apr-17 06:29N 38°17' W 008°50'2 4.5
2018-Apr-17 06:00N 38°15' W 008°50'2 4.4
2018-Apr-17 05:31N 38°14' W 008°47'2 4.2
2018-Apr-17 05:00N 38°15' W 008°50'3 6.5
2018-Apr-17 04:30N 38°12' W 008°49'3 5.7
2018-Apr-17 04:01N 38°15' W 008°50'1 2.9
2018-Apr-17 03:31N 38°16' W 008°51'1 1.9
2018-Apr-17 02:58N 38°15' W 008°50'2 5.0
2018-Apr-17 02:30N 38°13' W 008°50'0 1.0
2018-Apr-17 02:00N 38°13' W 008°49'0 0.3
2018-Apr-17 01:30N 38°13' W 008°49'0 0.3
2018-Apr-17 01:00N 38°13' W 008°49'0 0.3
2018-Apr-17 00:30N 38°13' W 008°49'0 0.2
2018-Apr-16 23:59N 38°13' W 008°49'0 0.2
2018-Apr-16 23:30N 38°13' W 008°49'0 0.3
2018-Apr-16 23:01N 38°12' W 008°49'3 5.6
2018-Apr-16 22:27N 38°16' W 008°49'3 7.1
2018-Apr-16 22:00N 38°12' W 008°49'1 1.2
2018-Apr-16 21:30N 38°12' W 008°50'4 7.0
2018-Apr-16 21:00N 38°15' W 008°50'1 1.6
2018-Apr-16 20:31N 38°15' W 008°49'1 2.7
2018-Apr-16 19:58N 38°16' W 008°50'17 0.7
2018-Apr-15 21:17N 38°26' W 009°07'1 0.4
2018-Apr-15 20:02N 38°26' W 009°07'0 0.0
2018-Apr-15 19:59N 38°26' W 009°07'  

Dump ship's entire track history